sensor_id;sensor_type;location;lat;lon;timestamp;P1;durP1;ratioP1;P2;durP2;ratioP2
68888;SDS011;55930;47.412;8.790;2023-06-10T00:04:08;6.10;;;4.33;;
68888;SDS011;55930;47.412;8.790;2023-06-10T00:10:48;5.72;;;4.20;;
68888;SDS011;55930;47.412;8.790;2023-06-10T00:17:29;7.15;;;4.35;;
68888;SDS011;55930;47.412;8.790;2023-06-10T00:24:13;5.80;;;3.92;;
68888;SDS011;55930;47.412;8.790;2023-06-10T00:27:33;5.88;;;4.28;;
68888;SDS011;55930;47.412;8.790;2023-06-10T00:30:55;6.20;;;4.15;;
68888;SDS011;55930;47.412;8.790;2023-06-10T00:34:16;7.28;;;4.10;;
68888;SDS011;55930;47.412;8.790;2023-06-10T00:37:36;6.85;;;4.20;;
68888;SDS011;55930;47.412;8.790;2023-06-10T00:40:57;5.85;;;4.28;;
68888;SDS011;55930;47.412;8.790;2023-06-10T00:47:38;5.57;;;4.57;;
68888;SDS011;55930;47.412;8.790;2023-06-10T00:50:59;4.70;;;3.67;;
68888;SDS011;55930;47.412;8.790;2023-06-10T00:54:20;4.82;;;4.18;;
68888;SDS011;55930;47.412;8.790;2023-06-10T00:57:41;5.50;;;4.30;;
68888;SDS011;55930;47.412;8.790;2023-06-10T01:01:04;5.22;;;4.00;;
68888;SDS011;55930;47.412;8.790;2023-06-10T01:04:25;5.47;;;3.85;;
68888;SDS011;55930;47.412;8.790;2023-06-10T01:11:21;5.90;;;4.82;;
68888;SDS011;55930;47.412;8.790;2023-06-10T01:14:48;4.95;;;4.10;;
68888;SDS011;55930;47.412;8.790;2023-06-10T01:18:13;6.15;;;4.50;;
68888;SDS011;55930;47.412;8.790;2023-06-10T01:21:37;6.18;;;4.30;;
68888;SDS011;55930;47.412;8.790;2023-06-10T01:25:00;5.68;;;4.47;;
68888;SDS011;55930;47.412;8.790;2023-06-10T01:32:21;5.55;;;4.57;;
68888;SDS011;55930;47.412;8.790;2023-06-10T01:39:10;5.57;;;4.10;;
68888;SDS011;55930;47.412;8.790;2023-06-10T01:42:32;6.30;;;4.68;;
68888;SDS011;55930;47.412;8.790;2023-06-10T01:49:13;5.37;;;4.47;;
68888;SDS011;55930;47.412;8.790;2023-06-10T01:52:36;7.90;;;4.22;;
68888;SDS011;55930;47.412;8.790;2023-06-10T01:55:57;7.93;;;4.43;;
68888;SDS011;55930;47.412;8.790;2023-06-10T01:59:20;6.00;;;4.93;;
68888;SDS011;55930;47.412;8.790;2023-06-10T02:02:40;7.38;;;5.38;;
68888;SDS011;55930;47.412;8.790;2023-06-10T02:06:00;10.57;;;5.07;;
68888;SDS011;55930;47.412;8.790;2023-06-10T02:09:21;7.87;;;5.27;;
68888;SDS011;55930;47.412;8.790;2023-06-10T02:12:42;7.05;;;5.25;;
68888;SDS011;55930;47.412;8.790;2023-06-10T02:16:03;6.53;;;5.40;;
68888;SDS011;55930;47.412;8.790;2023-06-10T02:19:25;6.03;;;5.03;;
68888;SDS011;55930;47.412;8.790;2023-06-10T02:22:46;5.90;;;5.30;;
68888;SDS011;55930;47.412;8.790;2023-06-10T02:26:07;5.50;;;4.97;;
68888;SDS011;55930;47.412;8.790;2023-06-10T02:29:29;8.40;;;5.68;;
68888;SDS011;55930;47.412;8.790;2023-06-10T02:32:50;5.43;;;4.80;;
68888;SDS011;55930;47.412;8.790;2023-06-10T02:36:10;5.67;;;4.83;;
68888;SDS011;55930;47.412;8.790;2023-06-10T02:39:35;6.22;;;5.28;;
68888;SDS011;55930;47.412;8.790;2023-06-10T02:42:55;7.63;;;5.83;;
68888;SDS011;55930;47.412;8.790;2023-06-10T02:46:16;8.95;;;5.53;;
68888;SDS011;55930;47.412;8.790;2023-06-10T02:49:39;7.05;;;5.03;;
68888;SDS011;55930;47.412;8.790;2023-06-10T02:53:00;5.80;;;5.22;;
68888;SDS011;55930;47.412;8.790;2023-06-10T02:56:20;6.70;;;5.27;;
68888;SDS011;55930;47.412;8.790;2023-06-10T02:59:41;9.80;;;5.85;;
68888;SDS011;55930;47.412;8.790;2023-06-10T03:03:03;9.38;;;6.20;;
68888;SDS011;55930;47.412;8.790;2023-06-10T03:06:25;7.28;;;6.20;;
68888;SDS011;55930;47.412;8.790;2023-06-10T03:09:46;6.65;;;5.60;;
68888;SDS011;55930;47.412;8.790;2023-06-10T03:13:06;9.80;;;6.30;;
68888;SDS011;55930;47.412;8.790;2023-06-10T03:16:30;6.97;;;5.30;;
68888;SDS011;55930;47.412;8.790;2023-06-10T03:19:52;6.05;;;5.45;;
68888;SDS011;55930;47.412;8.790;2023-06-10T03:23:13;8.77;;;5.90;;
68888;SDS011;55930;47.412;8.790;2023-06-10T03:26:33;8.13;;;5.50;;
68888;SDS011;55930;47.412;8.790;2023-06-10T03:29:53;7.20;;;6.17;;
68888;SDS011;55930;47.412;8.790;2023-06-10T03:33:14;8.07;;;5.35;;
68888;SDS011;55930;47.412;8.790;2023-06-10T03:36:35;6.82;;;5.75;;
68888;SDS011;55930;47.412;8.790;2023-06-10T03:39:57;8.05;;;6.32;;
68888;SDS011;55930;47.412;8.790;2023-06-10T03:43:17;6.40;;;5.67;;
68888;SDS011;55930;47.412;8.790;2023-06-10T03:46:38;6.73;;;5.60;;
68888;SDS011;55930;47.412;8.790;2023-06-10T03:49:58;7.00;;;5.87;;
68888;SDS011;55930;47.412;8.790;2023-06-10T03:53:23;7.43;;;5.40;;
68888;SDS011;55930;47.412;8.790;2023-06-10T03:56:46;6.20;;;5.60;;
68888;SDS011;55930;47.412;8.790;2023-06-10T04:00:08;8.02;;;5.93;;
68888;SDS011;55930;47.412;8.790;2023-06-10T04:03:32;11.35;;;5.97;;
68888;SDS011;55930;47.412;8.790;2023-06-10T04:06:53;8.65;;;6.60;;
68888;SDS011;55930;47.412;8.790;2023-06-10T04:10:17;7.68;;;6.05;;
68888;SDS011;55930;47.412;8.790;2023-06-10T04:13:40;7.10;;;5.28;;
68888;SDS011;55930;47.412;8.790;2023-06-10T04:17:00;7.47;;;5.93;;
68888;SDS011;55930;47.412;8.790;2023-06-10T04:20:21;6.97;;;6.27;;
68888;SDS011;55930;47.412;8.790;2023-06-10T04:23:41;7.27;;;5.33;;
68888;SDS011;55930;47.412;8.790;2023-06-10T04:27:01;6.80;;;6.10;;
68888;SDS011;55930;47.412;8.790;2023-06-10T04:30:23;6.85;;;6.13;;
68888;SDS011;55930;47.412;8.790;2023-06-10T04:33:43;7.40;;;6.50;;
68888;SDS011;55930;47.412;8.790;2023-06-10T04:37:04;6.03;;;5.37;;
68888;SDS011;55930;47.412;8.790;2023-06-10T04:40:25;6.85;;;5.82;;
68888;SDS011;55930;47.412;8.790;2023-06-10T04:43:45;8.02;;;5.90;;
68888;SDS011;55930;47.412;8.790;2023-06-10T04:47:06;7.68;;;6.10;;
68888;SDS011;55930;47.412;8.790;2023-06-10T04:50:27;9.25;;;6.57;;
68888;SDS011;55930;47.412;8.790;2023-06-10T04:53:48;8.90;;;6.40;;
68888;SDS011;55930;47.412;8.790;2023-06-10T04:57:08;6.57;;;5.97;;
68888;SDS011;55930;47.412;8.790;2023-06-10T05:00:29;7.23;;;6.50;;
68888;SDS011;55930;47.412;8.790;2023-06-10T05:03:49;6.57;;;5.97;;
68888;SDS011;55930;47.412;8.790;2023-06-10T05:07:09;7.07;;;5.82;;
68888;SDS011;55930;47.412;8.790;2023-06-10T05:10:30;6.43;;;5.70;;
68888;SDS011;55930;47.412;8.790;2023-06-10T05:13:51;8.65;;;6.05;;
68888;SDS011;55930;47.412;8.790;2023-06-10T05:17:12;7.40;;;6.53;;
68888;SDS011;55930;47.412;8.790;2023-06-10T05:20:32;10.10;;;6.47;;
68888;SDS011;55930;47.412;8.790;2023-06-10T05:23:55;7.88;;;6.28;;
68888;SDS011;55930;47.412;8.790;2023-06-10T05:27:16;6.60;;;6.00;;
68888;SDS011;55930;47.412;8.790;2023-06-10T05:30:36;6.38;;;5.57;;
68888;SDS011;55930;47.412;8.790;2023-06-10T05:33:57;8.13;;;7.03;;
68888;SDS011;55930;47.412;8.790;2023-06-10T05:37:21;8.45;;;6.70;;
68888;SDS011;55930;47.412;8.790;2023-06-10T05:40:41;7.43;;;6.63;;
68888;SDS011;55930;47.412;8.790;2023-06-10T05:44:01;9.20;;;6.53;;
68888;SDS011;55930;47.412;8.790;2023-06-10T05:47:22;10.82;;;7.05;;
68888;SDS011;55930;47.412;8.790;2023-06-10T05:50:42;10.87;;;7.23;;
68888;SDS011;55930;47.412;8.790;2023-06-10T05:54:08;10.38;;;6.60;;
68888;SDS011;55930;47.412;8.790;2023-06-10T05:57:28;9.53;;;7.47;;
68888;SDS011;55930;47.412;8.790;2023-06-10T06:00:49;10.38;;;7.05;;
68888;SDS011;55930;47.412;8.790;2023-06-10T06:04:09;9.23;;;6.63;;
68888;SDS011;55930;47.412;8.790;2023-06-10T06:07:30;8.00;;;7.17;;
68888;SDS011;55930;47.412;8.790;2023-06-10T06:10:50;9.38;;;7.45;;
68888;SDS011;55930;47.412;8.790;2023-06-10T06:14:10;10.53;;;7.33;;
68888;SDS011;55930;47.412;8.790;2023-06-10T06:17:33;9.00;;;6.32;;
68888;SDS011;55930;47.412;8.790;2023-06-10T06:20:53;9.43;;;7.33;;
68888;SDS011;55930;47.412;8.790;2023-06-10T06:24:15;10.65;;;6.88;;
68888;SDS011;55930;47.412;8.790;2023-06-10T06:27:36;8.85;;;6.90;;
68888;SDS011;55930;47.412;8.790;2023-06-10T06:30:56;8.30;;;6.90;;
68888;SDS011;55930;47.412;8.790;2023-06-10T06:37:37;10.97;;;6.97;;
68888;SDS011;55930;47.412;8.790;2023-06-10T06:40:57;8.83;;;6.73;;
68888;SDS011;55930;47.412;8.790;2023-06-10T06:44:22;10.70;;;6.60;;
68888;SDS011;55930;47.412;8.790;2023-06-10T06:51:03;7.85;;;6.82;;
68888;SDS011;55930;47.412;8.790;2023-06-10T06:57:44;8.27;;;6.90;;
68888;SDS011;55930;47.412;8.790;2023-06-10T07:04:25;6.60;;;5.90;;
68888;SDS011;55930;47.412;8.790;2023-06-10T07:11:08;8.77;;;7.33;;
68888;SDS011;55930;47.412;8.790;2023-06-10T07:14:29;10.52;;;6.65;;
68888;SDS011;55930;47.412;8.790;2023-06-10T07:21:12;8.10;;;6.70;;
68888;SDS011;55930;47.412;8.790;2023-06-10T07:27:53;11.63;;;7.33;;
68888;SDS011;55930;47.412;8.790;2023-06-10T07:31:13;7.53;;;6.35;;
68888;SDS011;55930;47.412;8.790;2023-06-10T07:34:33;9.90;;;6.88;;
68888;SDS011;55930;47.412;8.790;2023-06-10T07:37:54;6.95;;;6.18;;
68888;SDS011;55930;47.412;8.790;2023-06-10T07:41:14;9.35;;;7.18;;
68888;SDS011;55930;47.412;8.790;2023-06-10T07:44:37;9.30;;;6.95;;
68888;SDS011;55930;47.412;8.790;2023-06-10T07:47:58;6.90;;;6.20;;
68888;SDS011;55930;47.412;8.790;2023-06-10T07:51:18;7.00;;;6.30;;
68888;SDS011;55930;47.412;8.790;2023-06-10T07:54:39;10.25;;;6.93;;
68888;SDS011;55930;47.412;8.790;2023-06-10T07:57:59;13.07;;;7.28;;
68888;SDS011;55930;47.412;8.790;2023-06-10T08:01:19;10.13;;;7.57;;
68888;SDS011;55930;47.412;8.790;2023-06-10T08:04:40;7.28;;;6.38;;
68888;SDS011;55930;47.412;8.790;2023-06-10T08:08:00;8.32;;;7.53;;
68888;SDS011;55930;47.412;8.790;2023-06-10T08:11:23;7.60;;;6.60;;
68888;SDS011;55930;47.412;8.790;2023-06-10T08:14:43;8.07;;;6.88;;
68888;SDS011;55930;47.412;8.790;2023-06-10T08:18:04;9.05;;;6.13;;
68888;SDS011;55930;47.412;8.790;2023-06-10T08:21:24;7.93;;;6.78;;
68888;SDS011;55930;47.412;8.790;2023-06-10T08:24:45;8.68;;;6.25;;
68888;SDS011;55930;47.412;8.790;2023-06-10T08:28:05;7.63;;;6.38;;
68888;SDS011;55930;47.412;8.790;2023-06-10T08:31:28;7.75;;;6.65;;
68888;SDS011;55930;47.412;8.790;2023-06-10T08:34:48;9.98;;;6.70;;
68888;SDS011;55930;47.412;8.790;2023-06-10T08:38:08;6.75;;;6.10;;
68888;SDS011;55930;47.412;8.790;2023-06-10T08:41:29;10.00;;;6.65;;
68888;SDS011;55930;47.412;8.790;2023-06-10T08:44:55;10.00;;;7.40;;
68888;SDS011;55930;47.412;8.790;2023-06-10T08:48:16;7.10;;;6.30;;
68888;SDS011;55930;47.412;8.790;2023-06-10T08:51:39;8.02;;;6.18;;
68888;SDS011;55930;47.412;8.790;2023-06-10T08:55:03;7.47;;;6.30;;
68888;SDS011;55930;47.412;8.790;2023-06-10T08:58:29;19.35;;;7.00;;
68888;SDS011;55930;47.412;8.790;2023-06-10T09:01:53;7.82;;;7.03;;
68888;SDS011;55930;47.412;8.790;2023-06-10T09:05:14;8.15;;;5.90;;
68888;SDS011;55930;47.412;8.790;2023-06-10T09:08:35;8.00;;;5.88;;
68888;SDS011;55930;47.412;8.790;2023-06-10T09:11:56;8.20;;;6.10;;
68888;SDS011;55930;47.412;8.790;2023-06-10T09:15:18;8.10;;;7.13;;
68888;SDS011;55930;47.412;8.790;2023-06-10T09:18:38;7.00;;;5.78;;
68888;SDS011;55930;47.412;8.790;2023-06-10T09:22:00;8.80;;;6.30;;
68888;SDS011;55930;47.412;8.790;2023-06-10T09:25:20;9.30;;;7.30;;
68888;SDS011;55930;47.412;8.790;2023-06-10T09:28:57;9.25;;;5.80;;
68888;SDS011;55930;47.412;8.790;2023-06-10T09:35:47;9.55;;;5.93;;
68888;SDS011;55930;47.412;8.790;2023-06-10T09:39:15;5.70;;;5.10;;
68888;SDS011;55930;47.412;8.790;2023-06-10T09:42:38;6.45;;;5.10;;
68888;SDS011;55930;47.412;8.790;2023-06-10T09:45:58;6.38;;;5.78;;
68888;SDS011;55930;47.412;8.790;2023-06-10T09:49:21;6.82;;;5.97;;
68888;SDS011;55930;47.412;8.790;2023-06-10T09:52:42;5.70;;;4.80;;
68888;SDS011;55930;47.412;8.790;2023-06-10T09:56:02;6.35;;;5.35;;
68888;SDS011;55930;47.412;8.790;2023-06-10T09:59:29;7.53;;;6.32;;
68888;SDS011;55930;47.412;8.790;2023-06-10T10:02:52;8.32;;;6.32;;
68888;SDS011;55930;47.412;8.790;2023-06-10T10:06:17;7.93;;;5.35;;
68888;SDS011;55930;47.412;8.790;2023-06-10T10:09:40;6.07;;;5.10;;
68888;SDS011;55930;47.412;8.790;2023-06-10T10:13:01;6.78;;;5.32;;
68888;SDS011;55930;47.412;8.790;2023-06-10T10:16:29;6.55;;;5.57;;
68888;SDS011;55930;47.412;8.790;2023-06-10T10:19:56;6.07;;;5.47;;
68888;SDS011;55930;47.412;8.790;2023-06-10T10:23:24;5.78;;;5.18;;
68888;SDS011;55930;47.412;8.790;2023-06-10T10:26:51;5.63;;;5.05;;
68888;SDS011;55930;47.412;8.790;2023-06-10T10:30:16;5.47;;;4.97;;
68888;SDS011;55930;47.412;8.790;2023-06-10T10:33:42;6.85;;;5.10;;
68888;SDS011;55930;47.412;8.790;2023-06-10T10:37:12;5.72;;;5.22;;
68888;SDS011;55930;47.412;8.790;2023-06-10T10:40:32;5.28;;;4.78;;
68888;SDS011;55930;47.412;8.790;2023-06-10T10:43:53;6.18;;;4.78;;
68888;SDS011;55930;47.412;8.790;2023-06-10T10:47:14;7.07;;;5.55;;
68888;SDS011;55930;47.412;8.790;2023-06-10T10:50:36;5.47;;;4.93;;
68888;SDS011;55930;47.412;8.790;2023-06-10T10:54:09;5.70;;;4.85;;
68888;SDS011;55930;47.412;8.790;2023-06-10T10:57:32;5.47;;;4.30;;
68888;SDS011;55930;47.412;8.790;2023-06-10T11:01:01;5.53;;;4.20;;
68888;SDS011;55930;47.412;8.790;2023-06-10T11:04:30;6.15;;;4.72;;
68888;SDS011;55930;47.412;8.790;2023-06-10T11:07:52;5.80;;;5.15;;
68888;SDS011;55930;47.412;8.790;2023-06-10T11:11:21;5.03;;;4.45;;
68888;SDS011;55930;47.412;8.790;2023-06-10T11:14:51;6.00;;;5.20;;
68888;SDS011;55930;47.412;8.790;2023-06-10T11:18:29;6.20;;;5.22;;
68888;SDS011;55930;47.412;8.790;2023-06-10T11:22:01;6.40;;;4.85;;
68888;SDS011;55930;47.412;8.790;2023-06-10T11:25:37;5.20;;;4.55;;
68888;SDS011;55930;47.412;8.790;2023-06-10T11:32:19;5.03;;;3.97;;
68888;SDS011;55930;47.412;8.790;2023-06-10T11:35:40;4.95;;;3.80;;
68888;SDS011;55930;47.412;8.790;2023-06-10T11:39:02;3.90;;;3.60;;
68888;SDS011;55930;47.412;8.790;2023-06-10T11:42:24;4.10;;;3.67;;
68888;SDS011;55930;47.412;8.790;2023-06-10T11:45:44;3.72;;;3.22;;
68888;SDS011;55930;47.412;8.790;2023-06-10T11:49:06;3.88;;;3.47;;
68888;SDS011;55930;47.412;8.790;2023-06-10T11:52:31;5.25;;;3.72;;
68888;SDS011;55930;47.412;8.790;2023-06-10T11:55:53;4.20;;;3.80;;
68888;SDS011;55930;47.412;8.790;2023-06-10T11:59:14;3.78;;;3.40;;
68888;SDS011;55930;47.412;8.790;2023-06-10T12:02:34;4.28;;;3.15;;
68888;SDS011;55930;47.412;8.790;2023-06-10T12:12:42;4.07;;;3.47;;
68888;SDS011;55930;47.412;8.790;2023-06-10T12:16:09;4.68;;;3.30;;
68888;SDS011;55930;47.412;8.790;2023-06-10T12:19:30;4.10;;;3.63;;
68888;SDS011;55930;47.412;8.790;2023-06-10T12:22:51;5.75;;;3.00;;
68888;SDS011;55930;47.412;8.790;2023-06-10T12:26:11;3.70;;;3.20;;
68888;SDS011;55930;47.412;8.790;2023-06-10T12:29:34;4.82;;;3.60;;
68888;SDS011;55930;47.412;8.790;2023-06-10T12:32:55;3.92;;;3.40;;
68888;SDS011;55930;47.412;8.790;2023-06-10T12:36:16;4.60;;;3.63;;
68888;SDS011;55930;47.412;8.790;2023-06-10T12:39:37;3.85;;;3.45;;
68888;SDS011;55930;47.412;8.790;2023-06-10T12:42:58;4.45;;;3.63;;
68888;SDS011;55930;47.412;8.790;2023-06-10T12:46:19;3.40;;;3.10;;
68888;SDS011;55930;47.412;8.790;2023-06-10T12:49:40;9.25;;;3.75;;
68888;SDS011;55930;47.412;8.790;2023-06-10T12:53:00;4.22;;;3.47;;
68888;SDS011;55930;47.412;8.790;2023-06-10T12:56:21;5.10;;;3.58;;
68888;SDS011;55930;47.412;8.790;2023-06-10T12:59:42;3.50;;;3.20;;
68888;SDS011;55930;47.412;8.790;2023-06-10T13:03:09;4.03;;;3.50;;
68888;SDS011;55930;47.412;8.790;2023-06-10T13:06:30;6.32;;;3.90;;
68888;SDS011;55930;47.412;8.790;2023-06-10T13:09:52;7.53;;;4.03;;
68888;SDS011;55930;47.412;8.790;2023-06-10T13:13:12;3.47;;;3.17;;
68888;SDS011;55930;47.412;8.790;2023-06-10T13:16:34;3.85;;;3.53;;
68888;SDS011;55930;47.412;8.790;2023-06-10T13:19:58;5.22;;;3.42;;
68888;SDS011;55930;47.412;8.790;2023-06-10T13:23:18;4.25;;;3.30;;
68888;SDS011;55930;47.412;8.790;2023-06-10T13:26:39;4.60;;;3.10;;
68888;SDS011;55930;47.412;8.790;2023-06-10T13:29:59;7.07;;;3.58;;
68888;SDS011;55930;47.412;8.790;2023-06-10T13:33:19;4.18;;;3.50;;
68888;SDS011;55930;47.412;8.790;2023-06-10T13:36:41;3.80;;;3.42;;
68888;SDS011;55930;47.412;8.790;2023-06-10T13:40:01;4.20;;;2.67;;
68888;SDS011;55930;47.412;8.790;2023-06-10T13:43:22;3.97;;;3.40;;
68888;SDS011;55930;47.412;8.790;2023-06-10T13:46:43;3.67;;;3.00;;
68888;SDS011;55930;47.412;8.790;2023-06-10T13:50:03;3.45;;;3.15;;
68888;SDS011;55930;47.412;8.790;2023-06-10T13:53:24;4.60;;;3.25;;
68888;SDS011;55930;47.412;8.790;2023-06-10T13:56:47;4.13;;;3.00;;
68888;SDS011;55930;47.412;8.790;2023-06-10T14:00:08;3.55;;;3.00;;
68888;SDS011;55930;47.412;8.790;2023-06-10T14:03:30;3.85;;;3.50;;
68888;SDS011;55930;47.412;8.790;2023-06-10T14:06:50;3.40;;;3.10;;
68888;SDS011;55930;47.412;8.790;2023-06-10T14:10:13;3.83;;;2.80;;
68888;SDS011;55930;47.412;8.790;2023-06-10T14:13:33;3.40;;;2.80;;
68888;SDS011;55930;47.412;8.790;2023-06-10T14:16:54;5.15;;;3.60;;
68888;SDS011;55930;47.412;8.790;2023-06-10T14:20:15;3.90;;;3.45;;
68888;SDS011;55930;47.412;8.790;2023-06-10T14:23:35;3.83;;;3.20;;
68888;SDS011;55930;47.412;8.790;2023-06-10T14:26:55;3.67;;;2.80;;
68888;SDS011;55930;47.412;8.790;2023-06-10T14:30:18;4.20;;;3.38;;
68888;SDS011;55930;47.412;8.790;2023-06-10T14:33:39;4.05;;;3.35;;
68888;SDS011;55930;47.412;8.790;2023-06-10T14:37:02;4.25;;;2.55;;
68888;SDS011;55930;47.412;8.790;2023-06-10T14:40:27;7.70;;;3.75;;
68888;SDS011;55930;47.412;8.790;2023-06-10T14:43:49;6.05;;;4.10;;
68888;SDS011;55930;47.412;8.790;2023-06-10T14:47:09;5.13;;;3.65;;
68888;SDS011;55930;47.412;8.790;2023-06-10T14:50:29;5.25;;;3.45;;
68888;SDS011;55930;47.412;8.790;2023-06-10T14:53:50;3.55;;;3.25;;
68888;SDS011;55930;47.412;8.790;2023-06-10T14:57:10;3.65;;;3.30;;
68888;SDS011;55930;47.412;8.790;2023-06-10T15:00:31;3.45;;;2.92;;
68888;SDS011;55930;47.412;8.790;2023-06-10T15:03:51;4.95;;;3.17;;
68888;SDS011;55930;47.412;8.790;2023-06-10T15:07:11;4.03;;;3.17;;
68888;SDS011;55930;47.412;8.790;2023-06-10T15:10:32;5.10;;;3.88;;
68888;SDS011;55930;47.412;8.790;2023-06-10T15:13:52;5.57;;;3.65;;
68888;SDS011;55930;47.412;8.790;2023-06-10T15:17:13;4.45;;;3.17;;
68888;SDS011;55930;47.412;8.790;2023-06-10T15:20:33;3.25;;;2.90;;
68888;SDS011;55930;47.412;8.790;2023-06-10T15:23:53;4.80;;;3.47;;
68888;SDS011;55930;47.412;8.790;2023-06-10T15:27:14;5.43;;;3.30;;
68888;SDS011;55930;47.412;8.790;2023-06-10T15:30:37;3.65;;;3.30;;
68888;SDS011;55930;47.412;8.790;2023-06-10T15:33:59;3.53;;;3.08;;
68888;SDS011;55930;47.412;8.790;2023-06-10T15:37:20;5.80;;;3.30;;
68888;SDS011;55930;47.412;8.790;2023-06-10T15:40:41;4.10;;;3.03;;
68888;SDS011;55930;47.412;8.790;2023-06-10T15:44:01;3.95;;;3.47;;
68888;SDS011;55930;47.412;8.790;2023-06-10T15:47:22;4.97;;;3.80;;
68888;SDS011;55930;47.412;8.790;2023-06-10T15:50:42;4.55;;;3.40;;
68888;SDS011;55930;47.412;8.790;2023-06-10T15:54:05;4.10;;;3.70;;
68888;SDS011;55930;47.412;8.790;2023-06-10T15:57:25;4.30;;;3.10;;
68888;SDS011;55930;47.412;8.790;2023-06-10T16:00:45;3.83;;;3.50;;
68888;SDS011;55930;47.412;8.790;2023-06-10T16:04:06;4.40;;;3.58;;
68888;SDS011;55930;47.412;8.790;2023-06-10T16:07:26;3.92;;;3.38;;
68888;SDS011;55930;47.412;8.790;2023-06-10T16:10:47;3.72;;;3.08;;
68888;SDS011;55930;47.412;8.790;2023-06-10T16:14:07;3.67;;;3.05;;
68888;SDS011;55930;47.412;8.790;2023-06-10T16:17:27;4.78;;;3.00;;
68888;SDS011;55930;47.412;8.790;2023-06-10T16:20:48;6.00;;;3.70;;
68888;SDS011;55930;47.412;8.790;2023-06-10T16:24:08;3.50;;;3.20;;
68888;SDS011;55930;47.412;8.790;2023-06-10T16:27:29;5.97;;;3.38;;
68888;SDS011;55930;47.412;8.790;2023-06-10T16:30:49;3.03;;;2.72;;
68888;SDS011;55930;47.412;8.790;2023-06-10T16:34:10;3.45;;;2.95;;
68888;SDS011;55930;47.412;8.790;2023-06-10T16:37:31;4.65;;;3.00;;
68888;SDS011;55930;47.412;8.790;2023-06-10T16:40:52;3.50;;;2.53;;
68888;SDS011;55930;47.412;8.790;2023-06-10T16:44:12;5.20;;;2.72;;
68888;SDS011;55930;47.412;8.790;2023-06-10T16:47:35;3.80;;;2.80;;
68888;SDS011;55930;47.412;8.790;2023-06-10T16:50:55;5.90;;;3.05;;
68888;SDS011;55930;47.412;8.790;2023-06-10T16:54:16;3.25;;;2.75;;
68888;SDS011;55930;47.412;8.790;2023-06-10T16:57:38;2.97;;;2.38;;
68888;SDS011;55930;47.412;8.790;2023-06-10T17:01:02;4.63;;;3.58;;
68888;SDS011;55930;47.412;8.790;2023-06-10T17:04:25;7.03;;;6.28;;
68888;SDS011;55930;47.412;8.790;2023-06-10T17:07:46;4.63;;;2.53;;
68888;SDS011;55930;47.412;8.790;2023-06-10T17:11:07;2.85;;;2.45;;
68888;SDS011;55930;47.412;8.790;2023-06-10T17:14:27;3.10;;;2.60;;
68888;SDS011;55930;47.412;8.790;2023-06-10T17:17:48;3.63;;;2.92;;
68888;SDS011;55930;47.412;8.790;2023-06-10T17:21:09;6.03;;;2.80;;
68888;SDS011;55930;47.412;8.790;2023-06-10T17:24:29;4.65;;;3.08;;
68888;SDS011;55930;47.412;8.790;2023-06-10T17:27:50;2.88;;;2.50;;
68888;SDS011;55930;47.412;8.790;2023-06-10T17:31:10;4.30;;;3.22;;
68888;SDS011;55930;47.412;8.790;2023-06-10T17:34:31;5.60;;;5.00;;
68888;SDS011;55930;47.412;8.790;2023-06-10T17:37:51;3.10;;;2.80;;
68888;SDS011;55930;47.412;8.790;2023-06-10T17:41:11;3.22;;;2.47;;
68888;SDS011;55930;47.412;8.790;2023-06-10T17:44:35;4.47;;;2.60;;
68888;SDS011;55930;47.412;8.790;2023-06-10T17:47:55;18.73;;;16.77;;
68888;SDS011;55930;47.412;8.790;2023-06-10T17:51:15;4.65;;;4.05;;
68888;SDS011;55930;47.412;8.790;2023-06-10T17:54:36;3.58;;;2.90;;
68888;SDS011;55930;47.412;8.790;2023-06-10T17:57:58;3.72;;;2.70;;
68888;SDS011;55930;47.412;8.790;2023-06-10T18:01:19;3.58;;;2.30;;
68888;SDS011;55930;47.412;8.790;2023-06-10T18:04:39;3.22;;;2.90;;
68888;SDS011;55930;47.412;8.790;2023-06-10T18:08:00;4.15;;;3.40;;
68888;SDS011;55930;47.412;8.790;2023-06-10T18:11:20;4.45;;;3.60;;
68888;SDS011;55930;47.412;8.790;2023-06-10T18:14:41;3.67;;;2.63;;
68888;SDS011;55930;47.412;8.790;2023-06-10T18:18:02;2.58;;;2.38;;
68888;SDS011;55930;47.412;8.790;2023-06-10T18:21:22;3.28;;;2.42;;
68888;SDS011;55930;47.412;8.790;2023-06-10T18:24:43;6.28;;;5.35;;
68888;SDS011;55930;47.412;8.790;2023-06-10T18:28:03;9.75;;;8.88;;
68888;SDS011;55930;47.412;8.790;2023-06-10T18:31:24;3.75;;;3.35;;
68888;SDS011;55930;47.412;8.790;2023-06-10T18:34:44;3.08;;;2.30;;
68888;SDS011;55930;47.412;8.790;2023-06-10T18:38:06;5.47;;;2.70;;
68888;SDS011;55930;47.412;8.790;2023-06-10T18:41:26;3.78;;;2.60;;
68888;SDS011;55930;47.412;8.790;2023-06-10T18:44:47;3.60;;;2.33;;
68888;SDS011;55930;47.412;8.790;2023-06-10T18:48:07;4.60;;;2.47;;
68888;SDS011;55930;47.412;8.790;2023-06-10T18:51:28;3.53;;;2.30;;
68888;SDS011;55930;47.412;8.790;2023-06-10T18:54:50;3.67;;;2.60;;
68888;SDS011;55930;47.412;8.790;2023-06-10T18:58:11;2.88;;;2.42;;
68888;SDS011;55930;47.412;8.790;2023-06-10T19:01:31;4.80;;;2.40;;
68888;SDS011;55930;47.412;8.790;2023-06-10T19:04:52;3.70;;;2.53;;
68888;SDS011;55930;47.412;8.790;2023-06-10T19:08:12;4.25;;;2.65;;
68888;SDS011;55930;47.412;8.790;2023-06-10T19:11:32;3.67;;;2.65;;
68888;SDS011;55930;47.412;8.790;2023-06-10T19:14:53;3.00;;;2.65;;
68888;SDS011;55930;47.412;8.790;2023-06-10T19:18:14;3.95;;;2.80;;
68888;SDS011;55930;47.412;8.790;2023-06-10T19:21:34;3.85;;;2.60;;
68888;SDS011;55930;47.412;8.790;2023-06-10T19:25:02;3.28;;;2.80;;
68888;SDS011;55930;47.412;8.790;2023-06-10T19:28:23;3.50;;;2.58;;
68888;SDS011;55930;47.412;8.790;2023-06-10T19:31:46;3.33;;;2.90;;
68888;SDS011;55930;47.412;8.790;2023-06-10T19:35:06;3.25;;;2.95;;
68888;SDS011;55930;47.412;8.790;2023-06-10T19:38:28;4.82;;;3.03;;
68888;SDS011;55930;47.412;8.790;2023-06-10T19:41:49;7.28;;;3.00;;
68888;SDS011;55930;47.412;8.790;2023-06-10T19:45:09;3.13;;;2.72;;
68888;SDS011;55930;47.412;8.790;2023-06-10T19:48:30;4.97;;;2.97;;
68888;SDS011;55930;47.412;8.790;2023-06-10T19:51:50;5.63;;;3.20;;
68888;SDS011;55930;47.412;8.790;2023-06-10T19:55:11;3.97;;;3.05;;
68888;SDS011;55930;47.412;8.790;2023-06-10T19:58:34;3.42;;;2.90;;
68888;SDS011;55930;47.412;8.790;2023-06-10T20:01:55;4.55;;;3.15;;
68888;SDS011;55930;47.412;8.790;2023-06-10T20:05:18;3.58;;;3.05;;
68888;SDS011;55930;47.412;8.790;2023-06-10T20:08:38;4.20;;;3.42;;
68888;SDS011;55930;47.412;8.790;2023-06-10T20:12:00;4.47;;;3.60;;
68888;SDS011;55930;47.412;8.790;2023-06-10T20:15:21;3.88;;;3.38;;
68888;SDS011;55930;47.412;8.790;2023-06-10T20:18:41;4.50;;;3.63;;
68888;SDS011;55930;47.412;8.790;2023-06-10T20:22:02;6.43;;;3.35;;
68888;SDS011;55930;47.412;8.790;2023-06-10T20:25:24;5.53;;;4.35;;
68888;SDS011;55930;47.412;8.790;2023-06-10T20:28:44;4.75;;;3.65;;
68888;SDS011;55930;47.412;8.790;2023-06-10T20:32:05;4.45;;;4.05;;
68888;SDS011;55930;47.412;8.790;2023-06-10T20:35:26;4.43;;;3.90;;
68888;SDS011;55930;47.412;8.790;2023-06-10T20:38:46;4.68;;;4.03;;
68888;SDS011;55930;47.412;8.790;2023-06-10T20:42:06;4.95;;;3.95;;
68888;SDS011;55930;47.412;8.790;2023-06-10T20:45:27;5.25;;;4.38;;
68888;SDS011;55930;47.412;8.790;2023-06-10T20:48:47;6.97;;;4.10;;
68888;SDS011;55930;47.412;8.790;2023-06-10T20:52:08;4.28;;;3.83;;
68888;SDS011;55930;47.412;8.790;2023-06-10T20:55:28;6.65;;;4.22;;
68888;SDS011;55930;47.412;8.790;2023-06-10T20:58:50;4.57;;;4.18;;
68888;SDS011;55930;47.412;8.790;2023-06-10T21:02:10;4.40;;;3.95;;
68888;SDS011;55930;47.412;8.790;2023-06-10T21:05:31;7.82;;;4.75;;
68888;SDS011;55930;47.412;8.790;2023-06-10T21:08:51;6.75;;;5.00;;
68888;SDS011;55930;47.412;8.790;2023-06-10T21:12:11;6.18;;;4.82;;
68888;SDS011;55930;47.412;8.790;2023-06-10T21:15:35;4.65;;;4.25;;
68888;SDS011;55930;47.412;8.790;2023-06-10T21:18:55;6.68;;;4.40;;
68888;SDS011;55930;47.412;8.790;2023-06-10T21:22:18;4.82;;;4.28;;